Time;durP1;ratioP1;P1;durP2;ratioP2;P2;SDS_P1;SDS_P2;PMS_P1;PMS_P2;Temp;Humidity;BMP_temperature;BMP_pressure;BME280_temperature;BME280_humidity;BME280_pressure;Samples;Min_cycle;Max_cycle;Signal;HPM_P1;HPM_P2
2022/11/06 00:00:28;;;;;;;7.65;2.15;;;;;;;7.74;100.00;100813.72;5219522;28;20093;-75
2022/11/06 00:02:59;;;;;;;5.47;2.47;;;;;;;7.71;100.00;100816.38;5221525;28;20120;-76
2022/11/06 00:08:34;;;;;;;6.90;2.65;;;;;;;7.77;100.00;100813.69;5217975;28;20067;-76
2022/11/06 00:11:12;;;;;;;5.53;2.70;;;;;;;7.82;100.00;100813.56;5220637;28;20375;-76
2022/11/06 00:13:43;;;;;;;6.82;2.63;;;;;;;7.90;100.00;100815.13;5220242;28;20115;-76
2022/11/06 00:16:14;;;;;;;9.73;2.47;;;;;;;7.87;100.00;100812.59;5219752;28;20024;-75
2022/11/06 00:18:44;;;;;;;7.53;2.60;;;;;;;7.99;100.00;100817.53;5218422;28;20028;-76
2022/11/06 00:21:25;;;;;;;9.10;2.58;;;;;;;8.02;100.00;100825.28;5220505;28;20025;-76
2022/11/06 00:23:58;;;;;;;5.18;2.28;;;;;;;8.02;100.00;100822.66;5220069;28;20031;-76
2022/11/06 00:26:30;;;;;;;11.30;3.20;;;;;;;8.04;100.00;100814.84;5218326;28;20020;-76
2022/11/06 00:29:01;;;;;;;7.72;2.90;;;;;;;8.07;100.00;100815.63;5217757;28;20107;-76
2022/11/06 00:31:35;;;;;;;5.10;2.30;;;;;;;8.09;100.00;100803.44;5219190;28;20029;-76
2022/11/06 00:34:06;;;;;;;5.68;2.22;;;;;;;8.01;100.00;100805.34;5217762;28;20104;-76
2022/11/06 00:36:37;;;;;;;6.22;2.38;;;;;;;8.01;100.00;100809.72;5217932;28;20467;-76
2022/11/06 00:39:09;;;;;;;8.00;2.50;;;;;;;8.10;100.00;100815.56;5219893;28;20033;-75
2022/11/06 00:41:40;;;;;;;6.35;2.45;;;;;;;8.04;100.00;100813.09;5219926;28;20130;-76
2022/11/06 00:44:10;;;;;;;8.00;2.35;;;;;;;8.05;100.00;100812.19;5220898;28;20461;-76
2022/11/06 00:46:40;;;;;;;7.30;2.60;;;;;;;8.08;100.00;100814.72;5219379;28;20078;-76
2022/11/06 00:49:11;;;;;;;5.80;2.40;;;;;;;8.08;100.00;100814.72;5219000;28;20032;-76
2022/11/06 00:51:41;;;;;;;8.70;2.17;;;;;;;8.11;100.00;100811.22;5220227;28;20121;-76
2022/11/06 00:54:12;;;;;;;6.32;2.30;;;;;;;8.06;100.00;100811.31;5217326;28;20021;-75
2022/11/06 00:56:42;;;;;;;3.80;1.98;;;;;;;7.96;100.00;100807.19;5219058;28;20502;-76
2022/11/06 00:59:13;;;;;;;4.93;2.00;;;;;;;8.00;100.00;100800.16;5220118;28;20025;-76
2022/11/06 01:01:44;;;;;;;5.97;2.10;;;;;;;7.90;100.00;100798.66;5220557;28;20406;-76
2022/11/06 01:04:20;;;;;;;4.70;2.03;;;;;;;7.83;100.00;100797.94;5220459;28;20386;-75
2022/11/06 01:06:53;;;;;;;6.60;2.20;;;;;;;7.65;100.00;100795.72;5217893;28;20043;-76
2022/11/06 01:09:25;;;;;;;4.50;2.10;;;;;;;7.50;100.00;100803.81;5219543;28;20727;-76
2022/11/06 01:11:58;;;;;;;5.05;2.15;;;;;;;7.58;100.00;100796.75;5220184;28;20028;-76
2022/11/06 01:14:29;;;;;;;6.00;2.13;;;;;;;7.30;100.00;100795.53;5219525;28;20108;-76
2022/11/06 01:16:59;;;;;;;5.60;2.10;;;;;;;7.06;100.00;100807.25;5219378;28;20141;-75
2022/11/06 01:19:29;;;;;;;7.10;2.38;;;;;;;7.13;100.00;100808.88;5219762;28;20029;-76
2022/11/06 01:22:00;;;;;;;6.03;2.20;;;;;;;6.91;100.00;100808.41;5220046;28;20119;-75
2022/11/06 01:24:30;;;;;;;5.93;2.10;;;;;;;6.79;100.00;100799.97;5220034;28;20025;-76
2022/11/06 01:27:01;;;;;;;5.07;2.22;;;;;;;6.70;100.00;100806.16;5216731;28;20029;-76
2022/11/06 01:29:31;;;;;;;5.40;1.98;;;;;;;6.70;100.00;100807.88;5219854;28;20071;-76
2022/11/06 01:32:02;;;;;;;6.10;2.20;;;;;;;6.78;100.00;100804.28;5209598;28;20024;-76
2022/11/06 01:34:32;;;;;;;7.10;2.20;;;;;;;6.85;100.00;100797.25;5218843;28;20032;-76
2022/11/06 01:37:03;;;;;;;6.75;2.47;;;;;;;6.93;100.00;100798.00;5219326;28;20483;-76
2022/11/06 01:39:33;;;;;;;7.35;2.30;;;;;;;6.99;100.00;100808.25;5219496;28;20238;-75
2022/11/06 01:42:03;;;;;;;6.55;2.65;;;;;;;7.15;100.00;100800.19;5219845;28;20025;-76
2022/11/06 01:44:34;;;;;;;7.40;2.33;;;;;;;7.28;100.00;100794.72;5219622;28;20394;-76
2022/11/06 01:47:16;;;;;;;9.30;2.50;;;;;;;7.45;100.00;100787.47;5219475;28;20506;-76
2022/11/06 01:49:49;;;;;;;9.90;2.60;;;;;;;7.47;100.00;100785.69;5219005;28;20291;-76
2022/11/06 01:52:21;;;;;;;7.40;2.53;;;;;;;7.64;100.00;100783.59;5219727;28;20029;-76
2022/11/06 01:54:55;;;;;;;6.32;2.50;;;;;;;7.55;100.00;100783.78;5220275;28;20035;-76
2022/11/06 01:57:26;;;;;;;7.80;2.67;;;;;;;7.51;100.00;100779.53;5217191;28;20024;-76
2022/11/06 01:59:56;;;;;;;4.72;2.45;;;;;;;7.38;100.00;100780.66;5219548;28;20482;-75
2022/11/06 02:02:27;;;;;;;7.15;2.05;;;;;;;7.32;100.00;100782.53;5219726;28;20027;-75
2022/11/06 02:04:57;;;;;;;4.78;2.40;;;;;;;7.29;100.00;100786.03;5219121;28;20057;-76
2022/11/06 02:07:28;;;;;;;4.45;2.33;;;;;;;7.35;100.00;100782.47;5222978;28;20075;-76
2022/11/06 02:09:58;;;;;;;7.13;2.47;;;;;;;7.36;100.00;100774.63;5223191;28;20292;-76
2022/11/06 02:12:40;;;;;;;7.82;2.40;;;;;;;7.54;100.00;100769.06;5223819;28;20025;-75
2022/11/06 02:15:26;;;;;;;4.68;2.20;;;;;;;7.43;100.00;100763.22;5220276;28;20029;-74
2022/11/06 02:18:38;;;;;;;4.75;2.25;;;;;;;7.41;100.00;100767.63;5223878;28;20052;-76
2022/11/06 02:21:16;;;;;;;6.22;1.98;;;;;;;7.54;100.00;100763.84;5179777;28;20030;-76
2022/11/06 02:24:01;;;;;;;5.88;2.30;;;;;;;7.37;100.00;100767.69;5210621;28;20517;-76
2022/11/06 02:27:09;;;;;;;6.38;2.40;;;;;;;7.26;100.00;100769.63;5221136;28;20020;-76
2022/11/06 02:29:48;;;;;;;5.18;2.20;;;;;;;7.47;100.00;100770.06;5183546;28;20041;-76
2022/11/06 02:32:26;;;;;;;3.97;1.92;;;;;;;7.58;100.00;100773.34;5223550;28;20043;-75
2022/11/06 02:34:59;;;;;;;4.95;2.33;;;;;;;7.63;100.00;100768.88;5222627;28;20029;-76
2022/11/06 02:37:34;;;;;;;4.68;2.22;;;;;;;7.47;100.00;100770.06;5222595;28;20505;-74
2022/11/06 02:40:08;;;;;;;5.72;2.47;;;;;;;7.26;100.00;100768.78;5219548;28;20075;-76
2022/11/06 02:42:42;;;;;;;5.57;2.30;;;;;;;7.17;100.00;100767.22;5223407;28;20115;-76
2022/11/06 02:45:17;;;;;;;8.38;2.63;;;;;;;7.13;100.00;100768.16;5221647;28;20036;-75
2022/11/06 02:47:53;;;;;;;5.65;2.40;;;;;;;7.26;100.00;100769.63;5221730;28;20067;-76
2022/11/06 02:50:29;;;;;;;6.93;2.83;;;;;;;7.36;100.00;100766.81;5223384;28;20065;-76
2022/11/06 02:53:03;;;;;;;5.15;2.22;;;;;;;7.31;100.00;100760.88;5222436;28;20037;-75
2022/11/06 02:55:40;;;;;;;4.70;2.45;;;;;;;7.23;100.00;100769.69;5221603;28;20025;-76
2022/11/06 02:58:28;;;;;;;5.03;2.67;;;;;;;7.19;100.00;100767.19;5221871;28;20082;-75
2022/11/06 03:01:18;;;;;;;9.60;3.00;;;;;;;7.33;100.00;100772.09;5222384;28;20104;-76
2022/11/06 03:03:54;;;;;;;5.60;2.50;;;;;;;7.46;100.00;100760.56;5221990;28;20124;-76
2022/11/06 03:06:31;;;;;;;4.82;2.60;;;;;;;7.44;100.00;100764.06;5221772;28;20491;-76
2022/11/06 03:09:07;;;;;;;6.82;3.00;;;;;;;7.48;100.00;100764.00;5240494;22;20342;-73
2022/11/06 03:11:40;;;;;;;;;;;;;;;7.57;100.00;100760.34;5159709;28;20049;-73
2022/11/06 03:14:13;;;;;;;5.72;2.85;;;;;;;7.61;100.00;100751.59;5159710;28;19913;-73
2022/11/06 03:16:59;;;;;;;7.82;2.95;;;;;;;7.74;100.00;100756.50;5160287;28;20073;-73
2022/11/06 03:19:44;;;;;;;7.20;2.92;;;;;;;7.87;100.00;100757.09;5171384;28;20612;-73
2022/11/06 03:22:22;;;;;;;10.15;3.38;;;;;;;7.89;100.00;100748.34;5161143;28;20373;-74
2022/11/06 03:25:08;;;;;;;7.30;3.00;;;;;;;7.97;100.00;100746.47;5159972;28;20555;-74
2022/11/06 03:27:51;;;;;;;9.50;3.60;;;;;;;8.15;100.00;100750.38;5159848;28;20276;-73
2022/11/06 03:30:21;;;;;;;7.40;3.03;;;;;;;8.23;100.00;100745.91;5160636;28;20026;-73
2022/11/06 03:33:10;;;;;;;9.38;3.25;;;;;;;8.33;100.00;100730.03;5160273;28;20595;-73
2022/11/06 03:35:47;;;;;;;8.00;3.45;;;;;;;8.33;100.00;100744.78;5160162;28;20061;-72
2022/11/06 03:38:24;;;;;;;8.00;3.33;;;;;;;8.37;100.00;100736.00;5159158;28;20041;-73
2022/11/06 03:41:00;;;;;;;8.98;2.80;;;;;;;8.38;100.00;100720.34;5160291;28;20033;-73
2022/11/06 03:43:35;;;;;;;7.82;3.30;;;;;;;8.41;100.00;100722.84;5158616;28;20076;-73
2022/11/06 03:46:12;;;;;;;8.18;3.70;;;;;;;8.45;100.00;100719.31;5160317;28;20026;-73
2022/11/06 03:48:48;;;;;;;7.55;3.15;;;;;;;8.37;100.00;100721.22;5159794;28;20032;-73
2022/11/06 03:51:33;;;;;;;6.40;2.90;;;;;;;8.43;100.00;100709.81;5160748;28;20767;-72
2022/11/06 03:54:09;;;;;;;7.65;3.00;;;;;;;8.43;100.00;100717.63;5157197;28;20037;-72
2022/11/06 03:56:45;;;;;;;9.00;2.78;;;;;;;8.51;100.00;100716.53;5159445;28;20026;-73
2022/11/06 03:59:18;;;;;;;;;;;;;;;8.43;100.00;100715.03;5160201;28;20026;-74
2022/11/06 04:01:52;;;;;;;7.43;3.00;;;;;;;8.43;100.00;100715.91;5160635;28;19913;-73
2022/11/06 04:04:28;;;;;;;8.70;3.03;;;;;;;8.55;100.00;100701.72;5160501;28;20041;-73
2022/11/06 04:07:04;;;;;;;9.57;3.00;;;;;;;8.48;100.00;100707.94;5159750;28;20320;-73
2022/11/06 04:15:21;;;;;;;7.97;2.78;;;;;;;8.60;100.00;100718.94;5172570;28;20176;-73
2022/11/06 04:17:51;;;;;;;9.85;3.42;;;;;;;8.49;100.00;100710.53;5157986;28;20045;-73
2022/11/06 04:26:34;;;;;;;6.43;2.97;;;;;;;8.64;100.00;100719.69;5151382;28;20301;-73
2022/11/06 04:26:52;;;;;;;7.45;3.10;;;;;;;8.62;100.00;100724.97;5138301;28;20480;-73
2022/11/06 04:29:35;;;;;;;8.15;3.22;;;;;;;8.60;100.00;100718.94;5156385;28;20092;-73
2022/11/06 04:32:32;;;;;;;7.38;2.50;;;;;;;8.59;100.00;100717.19;5157212;28;20115;-73
2022/11/06 04:35:25;;;;;;;8.85;2.80;;;;;;;8.59;100.00;100719.81;5159324;28;20030;-73
2022/11/06 04:38:03;;;;;;;10.15;2.88;;;;;;;8.55;100.00;100710.34;5158503;28;20026;-73
2022/11/06 04:40:51;;;;;;;7.93;2.83;;;;;;;8.60;100.00;100705.03;5158598;28;20014;-73
2022/11/06 04:43:34;;;;;;;8.05;3.15;;;;;;;8.67;100.00;100707.44;5159268;28;20076;-74
2022/11/06 04:46:08;;;;;;;6.93;2.42;;;;;;;8.60;100.00;100711.13;5154423;28;20536;-71
2022/11/06 04:48:39;;;;;;;8.75;2.90;;;;;;;8.55;100.00;100712.97;5157719;28;20038;-73
2022/11/06 04:51:12;;;;;;;5.60;2.60;;;;;;;8.51;100.00;100721.75;5159442;28;20034;-73
2022/11/06 04:53:42;;;;;;;9.18;2.65;;;;;;;8.49;100.00;100713.13;5152210;28;20030;-73
2022/11/06 04:56:27;;;;;;;7.55;2.95;;;;;;;8.54;100.00;100719.06;5158590;28;20033;-73
2022/11/06 04:58:57;;;;;;;7.90;2.80;;;;;;;8.42;100.00;100710.72;5159175;28;20460;-73
2022/11/06 05:01:27;;;;;;;8.93;3.42;;;;;;;8.41;100.00;100714.22;5159283;28;20076;-73
2022/11/06 05:03:58;;;;;;;9.18;2.90;;;;;;;8.38;100.00;100707.31;5159361;28;20026;-73
2022/11/06 05:06:29;;;;;;;7.28;2.58;;;;;;;8.27;100.00;100704.13;5158562;28;20488;-73
2022/11/06 05:09:00;;;;;;;7.90;3.08;;;;;;;8.20;100.00;100704.31;5158884;28;20092;-73
2022/11/06 05:11:30;;;;;;;10.70;2.97;;;;;;;7.99;100.00;100713.44;5154916;28;20033;-73
2022/11/06 05:14:00;;;;;;;8.35;2.97;;;;;;;7.86;100.00;100712.00;5159371;28;20109;-74
2022/11/06 05:16:30;;;;;;;7.22;2.80;;;;;;;7.97;100.00;100711.75;5157170;28;20499;-73
2022/11/06 05:19:01;;;;;;;7.07;2.60;;;;;;;7.87;100.00;100716.31;5158890;28;20040;-73
2022/11/06 05:24:20;;;;;;;6.43;2.70;;;;;;;7.75;100.00;100707.94;5158849;28;20120;-73
2022/11/06 05:26:51;;;;;;;7.18;2.63;;;;;;;7.60;100.00;100714.34;5158444;28;20452;-73
2022/11/06 05:29:21;;;;;;;11.75;3.40;;;;;;;7.56;100.00;100715.25;5158871;28;20026;-73
2022/11/06 05:31:51;;;;;;;6.57;3.08;;;;;;;7.64;100.00;100710.78;5158726;28;20030;-71
2022/11/06 05:34:21;;;;;;;6.97;2.60;;;;;;;7.66;100.00;100711.59;5158151;28;20041;-74
2022/11/06 05:36:52;;;;;;;6.82;2.80;;;;;;;7.58;100.00;100708.31;5157818;28;20037;-73
2022/11/06 05:39:22;;;;;;;6.97;2.95;;;;;;;7.58;100.00;100712.66;5159910;28;20439;-73
2022/11/06 05:41:52;;;;;;;6.82;3.13;;;;;;;7.46;100.00;100716.38;5162905;28;20104;-73
2022/11/06 05:44:22;;;;;;;6.40;2.90;;;;;;;7.43;100.00;100711.22;5160677;28;20037;-73
2022/11/06 05:46:53;;;;;;;6.60;2.90;;;;;;;7.37;100.00;100711.34;5162152;28;20061;-73
2022/11/06 05:49:23;;;;;;;6.97;2.83;;;;;;;7.41;100.00;100704.34;5161772;28;20029;-73
2022/11/06 05:51:53;;;;;;;8.85;2.90;;;;;;;7.47;100.00;100697.28;5162817;28;20200;-73
2022/11/06 05:54:24;;;;;;;7.72;3.15;;;;;;;7.38;100.00;100697.44;5162897;28;20041;-73
2022/11/06 05:56:54;;;;;;;5.75;2.83;;;;;;;7.46;100.00;100702.50;5160513;28;20070;-73
2022/11/06 05:59:24;;;;;;;6.60;3.03;;;;;;;7.38;100.00;100705.25;5162500;28;20026;-73
2022/11/06 06:01:55;;;;;;;7.45;3.20;;;;;;;7.35;100.00;100707.91;5162477;28;20038;-73
2022/11/06 06:04:25;;;;;;;6.95;3.05;;;;;;;7.46;100.00;100711.16;5158844;28;20288;-73
2022/11/06 06:06:55;;;;;;;8.95;3.05;;;;;;;7.57;100.00;100703.13;5161553;28;20045;-73
2022/11/06 06:09:26;;;;;;;8.07;3.17;;;;;;;7.63;100.00;100698.66;5160023;28;20022;-73
2022/11/06 06:11:56;;;;;;;11.68;3.63;;;;;;;7.69;100.00;100693.31;5162409;28;20209;-73
2022/11/06 06:14:26;;;;;;;10.98;3.20;;;;;;;7.71;100.00;100688.94;5162344;28;20029;-72
2022/11/06 06:16:56;;;;;;;8.55;3.15;;;;;;;7.74;100.00;100696.66;5161777;28;20113;-72
2022/11/06 06:19:27;;;;;;;7.40;3.10;;;;;;;7.80;100.00;100687.88;5161763;28;20030;-73
2022/11/06 06:21:57;;;;;;;9.65;5.47;;;;;;;7.84;100.00;100677.38;5160479;28;20030;-73
2022/11/06 06:24:27;;;;;;;7.90;3.85;;;;;;;7.93;100.00;100665.88;5161947;28;20182;-73
2022/11/06 06:26:58;;;;;;;10.30;3.85;;;;;;;7.97;100.00;100665.78;5161831;28;20308;-73
2022/11/06 06:29:28;;;;;;;8.25;3.10;;;;;;;8.03;100.00;100660.44;5159401;28;20026;-73
2022/11/06 06:31:58;;;;;;;10.73;5.40;;;;;;;8.09;100.00;100662.91;5160101;28;20100;-71
2022/11/06 06:34:29;;;;;;;7.35;2.92;;;;;;;8.26;100.00;100665.13;5161877;28;20034;-73
2022/11/06 06:36:59;;;;;;;8.30;3.03;;;;;;;8.28;100.00;100664.19;5161221;28;20054;-73
2022/11/06 06:39:29;;;;;;;7.85;2.78;;;;;;;8.26;100.00;100673.78;5161679;28;20551;-72
2022/11/06 06:42:00;;;;;;;6.85;2.72;;;;;;;8.26;100.00;100676.41;5157700;28;20036;-73
2022/11/06 06:44:31;;;;;;;7.63;2.75;;;;;;;8.27;100.00;100677.22;5161174;28;20068;-73
2022/11/06 06:47:01;;;;;;;7.35;2.45;;;;;;;8.30;100.00;100670.22;5161066;28;20062;-74
2022/11/06 06:49:31;;;;;;;7.65;2.80;;;;;;;8.26;100.00;100675.53;5160732;28;20089;-73
2022/11/06 06:52:03;;;;;;;5.65;2.63;;;;;;;8.20;100.00;100665.28;5160349;28;20035;-73
2022/11/06 06:54:33;;;;;;;8.25;2.80;;;;;;;8.34;100.00;100669.25;5160692;28;20026;-72
2022/11/06 06:57:03;;;;;;;12.15;3.03;;;;;;;8.36;100.00;100677.03;5159969;28;20038;-73
2022/11/06 06:59:34;;;;;;;8.75;2.60;;;;;;;8.44;100.00;100680.28;5160966;28;20026;-73
2022/11/06 07:02:04;;;;;;;8.18;2.58;;;;;;;8.46;100.00;100673.28;5160869;28;20129;-73
2022/11/06 07:04:35;;;;;;;5.40;2.60;;;;;;;8.55;100.00;100676.50;5161531;28;20034;-73
2022/11/06 07:07:05;;;;;;;7.32;2.55;;;;;;;8.61;100.00;100670.28;5160430;28;20424;-73
2022/11/06 07:09:35;;;;;;;8.00;3.05;;;;;;;8.74;100.00;100669.91;5160705;28;20119;-73
2022/11/06 07:12:06;;;;;;;16.58;5.10;;;;;;;8.82;100.00;100660.16;5160211;28;20031;-73
2022/11/06 07:14:36;;;;;;;11.90;3.90;;;;;;;8.88;100.00;100653.91;5161292;28;20058;-73
2022/11/06 07:17:07;;;;;;;7.97;2.53;;;;;;;9.00;100.00;100651.81;5160732;28;20030;-73
2022/11/06 07:19:37;;;;;;;8.07;2.80;;;;;;;8.95;100.00;100648.50;5160144;28;20029;-71
2022/11/06 07:22:07;;;;;;;7.22;2.72;;;;;;;8.94;100.00;100651.13;5160318;28;20048;-73
2022/11/06 07:24:38;;;;;;;7.45;3.00;;;;;;;9.01;100.00;100648.31;5161032;28;20113;-73
2022/11/06 07:27:08;;;;;;;9.73;2.83;;;;;;;9.13;100.00;100647.13;5158749;28;20064;-73
2022/11/06 07:29:39;;;;;;;7.78;2.22;;;;;;;9.17;100.00;100660.03;5158699;28;20482;-73
2022/11/06 07:32:09;;;;;;;5.47;2.30;;;;;;;9.13;100.00;100659.25;5159927;28;20077;-73
2022/11/06 07:34:39;;;;;;;5.80;2.13;;;;;;;9.16;100.00;100663.53;5161089;28;20480;-74
2022/11/06 07:37:09;;;;;;;6.90;2.30;;;;;;;9.11;100.00;100670.63;5159356;28;20054;-72
2022/11/06 07:39:40;;;;;;;5.97;2.22;;;;;;;9.08;100.00;100665.47;5160532;28;20141;-72
2022/11/06 07:42:10;;;;;;;7.20;2.10;;;;;;;9.33;99.87;100656.06;5160476;28;20061;-73
2022/11/06 07:44:40;;;;;;;7.18;2.40;;;;;;;9.53;98.39;100664.16;5160043;28;20373;-73
2022/11/06 07:47:10;;;;;;;8.98;2.30;;;;;;;9.63;96.76;100661.22;5159914;28;20057;-72
2022/11/06 07:49:41;;;;;;;8.82;2.10;;;;;;;9.59;96.95;100657.00;5160072;28;20157;-73
2022/11/06 07:52:11;;;;;;;4.47;2.05;;;;;;;9.48;97.05;100658.25;5159461;28;20571;-71
2022/11/06 07:54:41;;;;;;;6.82;2.08;;;;;;;10.21;95.14;100647.22;5160542;28;20381;-73
2022/11/06 07:57:12;;;;;;;7.30;2.33;;;;;;;10.93;91.88;100652.53;5159473;28;20038;-73
2022/11/06 07:59:42;;;;;;;8.20;2.03;;;;;;;11.30;87.27;100638.06;5159839;28;20029;-74
2022/11/06 08:02:13;;;;;;;4.72;2.00;;;;;;;11.16;88.18;100646.44;5159871;28;20716;-73
2022/11/06 08:04:43;;;;;;;7.28;2.22;;;;;;;10.84;89.32;100642.44;5159906;28;20030;-73
2022/11/06 08:07:13;;;;;;;5.53;2.30;;;;;;;10.62;89.68;100646.66;5159566;28;20088;-73
2022/11/06 08:09:43;;;;;;;7.53;2.10;;;;;;;10.40;91.80;100643.97;5159152;28;20506;-73
2022/11/06 08:12:14;;;;;;;7.53;2.30;;;;;;;9.91;93.88;100640.34;5159793;28;20030;-73
2022/11/06 08:14:44;;;;;;;5.05;2.15;;;;;;;9.78;95.21;100647.72;5159801;28;20113;-73
2022/11/06 08:17:14;;;;;;;11.95;2.03;;;;;;;9.99;94.08;100648.81;5159403;28;20511;-73
2022/11/06 08:19:45;;;;;;;6.35;2.00;;;;;;;9.86;95.30;100652.69;5159615;28;20022;-73
2022/11/06 08:22:15;;;;;;;6.40;2.10;;;;;;;9.99;96.24;100641.81;5158582;28;20486;-73
2022/11/06 08:24:45;;;;;;;4.85;1.85;;;;;;;11.22;90.14;100638.34;5155745;28;20041;-72
2022/11/06 08:27:15;;;;;;;7.03;2.00;;;;;;;11.86;85.87;100621.91;5150762;28;21171;-73
2022/11/06 08:29:46;;;;;;;4.20;1.63;;;;;;;12.14;84.74;100619.84;5158910;28;20528;-74
2022/11/06 08:32:16;;;;;;;8.70;1.80;;;;;;;12.47;84.06;100623.69;5158766;28;20113;-73
2022/11/06 08:34:46;;;;;;;6.82;1.98;;;;;;;12.67;83.99;100633.34;5158900;28;20293;-73
2022/11/06 08:37:17;;;;;;;4.78;1.70;;;;;;;12.51;83.11;100629.66;5155731;28;20041;-73
2022/11/06 08:39:47;;;;;;;6.80;1.70;;;;;;;12.58;83.39;100628.47;5147071;28;20034;-70
2022/11/06 08:42:17;;;;;;;7.32;1.92;;;;;;;11.78;86.39;100629.19;5156084;28;20439;-74
2022/11/06 08:44:48;;;;;;;6.72;1.80;;;;;;;11.88;87.48;100619.22;5157767;28;20030;-73
2022/11/06 08:47:18;;;;;;;6.38;1.70;;;;;;;12.07;86.41;100618.41;5155934;28;20038;-74
2022/11/06 08:49:48;;;;;;;4.70;1.90;;;;;;;11.71;87.74;100617.28;5156327;28;20109;-73
2022/11/06 08:52:18;;;;;;;6.63;1.80;;;;;;;11.66;87.64;100618.38;5156215;28;20399;-73
2022/11/06 08:54:49;;;;;;;6.40;1.40;;;;;;;11.73;88.72;100627.69;5156467;28;20026;-73
2022/11/06 08:57:20;;;;;;;8.35;1.70;;;;;;;11.87;87.55;100610.53;5152546;28;20034;-74
2022/11/06 08:59:50;;;;;;;5.13;1.70;;;;;;;11.77;87.71;100608.34;5156998;28;20515;-73
2022/11/06 09:02:20;;;;;;;6.72;1.90;;;;;;;12.04;87.24;100601.97;5154754;28;20034;-73
2022/11/06 09:04:51;;;;;;;4.95;1.50;;;;;;;12.09;86.08;100600.03;5155466;28;20510;-73
2022/11/06 09:07:21;;;;;;;3.72;1.50;;;;;;;12.30;86.77;100593.91;5155548;28;20165;-73
2022/11/06 09:09:52;;;;;;;5.82;1.42;;;;;;;12.25;85.37;100586.22;5188246;22;20040;-79
2022/11/06 09:12:22;;;;;;;9.23;1.73;;;;;;;12.23;85.36;100597.66;5215319;28;20491;-78
2022/11/06 09:14:52;;;;;;;6.18;1.50;;;;;;;12.14;84.39;100601.53;5220143;28;20052;-78
2022/11/06 09:17:23;;;;;;;4.57;1.70;;;;;;;12.12;85.60;100605.97;5224406;28;20260;-73
2022/11/06 09:19:53;;;;;;;6.00;1.60;;;;;;;12.33;85.96;100599.84;5219117;28;20116;-76
2022/11/06 09:22:23;;;;;;;4.07;1.48;;;;;;;12.45;84.75;100609.81;5209602;28;20053;-76
2022/11/06 09:24:54;;;;;;;4.13;1.23;;;;;;;12.28;84.07;100606.22;5206240;28;20155;-77
2022/11/06 09:27:24;;;;;;;5.45;1.50;;;;;;;12.29;83.14;100603.50;5206139;28;20099;-75
2022/11/06 09:29:54;;;;;;;3.65;1.42;;;;;;;12.41;84.73;100603.00;5202102;28;20356;-75
2022/11/06 09:32:24;;;;;;;5.57;1.40;;;;;;;12.55;84.52;100611.13;5204126;28;20041;-76
2022/11/06 09:34:55;;;;;;;7.05;1.40;;;;;;;12.59;84.48;100598.72;5211295;28;20115;-76
2022/11/06 09:37:25;;;;;;;4.00;1.35;;;;;;;12.56;83.36;100599.72;5202416;28;20277;-76
2022/11/06 09:39:55;;;;;;;5.95;1.42;;;;;;;12.59;83.44;100578.59;5201196;28;20013;-74
2022/11/06 09:42:37;;;;;;;3.58;1.40;;;;;;;12.63;82.99;100585.41;5203876;28;20076;-76
2022/11/06 09:45:16;;;;;;;6.15;1.45;;;;;;;12.74;84.19;100598.91;5202525;28;20029;-76
2022/11/06 09:47:56;;;;;;;5.75;1.23;;;;;;;12.60;83.81;100596.03;5202987;28;20534;-76
2022/11/06 09:50:30;;;;;;;5.75;1.20;;;;;;;12.62;82.98;100596.81;5204827;28;20472;-76
2022/11/06 09:53:08;;;;;;;4.67;1.70;;;;;;;12.70;83.04;100599.13;5200492;28;20119;-75
2022/11/06 09:55:41;;;;;;;3.88;1.33;;;;;;;12.50;83.97;100605.22;5203399;28;20032;-76
2022/11/06 09:58:16;;;;;;;4.90;1.30;;;;;;;12.62;83.64;100596.81;5199380;28;20017;-75
2022/11/06 10:00:50;;;;;;;5.85;1.17;;;;;;;12.66;83.14;100587.91;5201358;28;20398;-76
2022/11/06 10:03:39;;;;;;;6.03;1.42;;;;;;;12.50;83.42;100592.09;5200464;28;20037;-76
2022/11/06 10:06:11;;;;;;;6.47;1.60;;;;;;;12.52;83.12;100581.56;5198925;28;20037;-76
2022/11/06 10:08:43;;;;;;;4.13;1.17;;;;;;;12.67;84.83;100573.88;5201096;28;20021;-76
2022/11/06 10:11:13;;;;;;;5.88;1.20;;;;;;;12.84;83.95;100562.66;5197721;28;20133;-76
2022/11/06 10:14:11;;;;;;;6.00;1.33;;;;;;;13.10;83.33;100557.94;5199377;28;20116;-75
2022/11/06 10:16:53;;;;;;;3.95;1.40;;;;;;;13.10;82.91;100555.31;5196166;28;20455;-77
2022/11/06 10:19:47;;;;;;;6.30;1.40;;;;;;;13.29;83.15;100558.78;5196196;28;20029;-76
2022/11/06 10:22:48;;;;;;;4.15;1.23;;;;;;;13.27;82.90;100558.03;5192590;28;20037;-76
2022/11/06 10:25:21;;;;;;;4.85;1.20;;;;;;;13.29;82.62;100556.16;5192815;28;20045;-77
2022/11/06 10:28:01;;;;;;;4.35;1.10;;;;;;;13.27;80.74;100539.66;5195501;28;20134;-76
2022/11/06 10:31:06;;;;;;;3.05;1.23;;;;;;;13.35;81.80;100542.75;5198308;28;20102;-76
2022/11/06 10:34:01;;;;;;;4.40;0.93;;;;;;;13.35;81.68;100548.00;5200066;28;20033;-76
2022/11/06 10:36:59;;;;;;;5.03;1.30;;;;;;;13.50;82.00;100545.50;5193241;28;20040;-76
2022/11/06 10:39:34;;;;;;;3.83;1.05;;;;;;;13.54;82.13;100538.34;5197005;28;20167;-76
2022/11/06 10:42:05;;;;;;;;;;;;;;;13.58;82.45;100535.47;5196920;28;20562;-76
2022/11/06 10:44:44;;;;;;;3.03;0.90;;;;;;;13.25;81.51;100542.34;5196660;28;19916;-76
2022/11/06 10:47:19;;;;;;;6.00;1.83;;;;;;;13.25;81.13;100536.25;5194688;28;20041;-72
2022/11/06 10:49:49;;;;;;;3.40;1.20;;;;;;;13.38;82.23;100543.47;5197268;28;20029;-76
2022/11/06 10:52:25;;;;;;;6.17;1.10;;;;;;;13.33;81.88;100536.72;5197655;28;20049;-75
2022/11/06 10:55:12;;;;;;;3.53;1.17;;;;;;;13.42;81.38;100538.94;5197003;28;20283;-76
2022/11/06 10:58:01;;;;;;;4.20;1.20;;;;;;;13.20;81.36;100535.63;5194546;28;20037;-76
2022/11/06 11:00:32;;;;;;;5.85;1.05;;;;;;;13.44;81.67;100537.91;5196506;28;20495;-76
2022/11/06 11:03:26;;;;;;;3.53;0.80;;;;;;;13.47;82.82;100527.28;5197416;28;20052;-77
2022/11/06 11:05:57;;;;;;;6.47;1.15;;;;;;;13.44;79.22;100524.78;5194930;28;20029;-76
2022/11/06 11:08:37;;;;;;;4.50;1.20;;;;;;;13.40;80.60;100522.41;5196746;28;20459;-76
2022/11/06 11:11:13;;;;;;;5.00;1.38;;;;;;;13.22;79.76;100510.16;5196662;28;20132;-76
2022/11/06 11:13:47;;;;;;;4.03;1.15;;;;;;;13.14;80.02;100512.28;5197393;28;20046;-75
2022/11/06 11:16:23;;;;;;;4.43;0.90;;;;;;;13.07;80.76;100506.44;5197426;28;20064;-76
2022/11/06 11:18:53;;;;;;;4.78;1.17;;;;;;;13.10;81.08;100505.47;5196298;28;20047;-76
2022/11/06 11:21:26;;;;;;;6.78;1.02;;;;;;;13.00;79.90;100504.19;5196674;28;20585;-76
2022/11/06 11:23:59;;;;;;;3.60;1.15;;;;;;;12.99;80.54;100492.84;5195004;28;20045;-74
2022/11/06 11:26:34;;;;;;;5.72;1.08;;;;;;;12.99;79.57;100486.75;5196660;28;20379;-75
2022/11/06 11:29:49;;;;;;;5.13;1.23;;;;;;;12.98;79.46;100485.91;5196274;28;20071;-76
2022/11/06 11:32:20;;;;;;;3.78;1.15;;;;;;;13.06;79.78;100478.53;5182411;28;20079;-75
2022/11/06 11:34:54;;;;;;;4.75;1.20;;;;;;;13.02;79.82;100474.34;5185935;28;20118;-77
2022/11/06 11:37:33;;;;;;;3.70;1.00;;;;;;;13.10;81.02;100459.06;5189246;28;20051;-78
2022/11/06 11:40:34;;;;;;;4.00;0.98;;;;;;;13.25;79.87;100447.84;5195505;28;20029;-78
2022/11/06 11:43:18;;;;;;;3.35;1.13;;;;;;;13.27;78.27;100455.66;5195789;28;20132;-77
2022/11/06 11:46:06;;;;;;;5.28;1.20;;;;;;;13.27;79.67;100453.03;5196683;28;20029;-78
2022/11/06 11:48:39;;;;;;;4.07;1.10;;;;;;;13.33;78.94;100455.34;5196547;28;20041;-77
2022/11/06 11:51:33;;;;;;;3.72;1.00;;;;;;;13.13;78.30;100442.34;5196458;28;20117;-77
2022/11/06 11:54:10;;;;;;;3.90;1.00;;;;;;;13.11;78.54;100444.19;5189332;28;20053;-78
2022/11/06 11:56:55;;;;;;;3.28;1.10;;;;;;;13.12;78.15;100440.66;5192639;28;20048;-78
2022/11/06 11:59:30;;;;;;;3.85;1.20;;;;;;;13.13;77.50;100435.34;5198323;28;20044;-77
2022/11/06 12:02:24;;;;;;;4.50;0.98;;;;;;;13.07;76.05;100424.28;5201728;28;20040;-77
2022/11/06 12:04:59;;;;;;;3.78;1.10;;;;;;;13.12;78.60;100422.28;5192606;28;20045;-77
2022/11/06 12:07:32;;;;;;;4.13;1.02;;;;;;;13.16;80.24;100410.69;5192353;28;20033;-76
2022/11/06 12:10:25;;;;;;;5.55;1.20;;;;;;;13.19;79.14;100407.91;5194825;28;20514;-78
2022/11/06 12:12:57;;;;;;;4.65;1.30;;;;;;;13.22;78.65;100407.78;5193889;28;20440;-77
2022/11/06 12:15:34;;;;;;;2.97;0.90;;;;;;;13.21;78.62;100406.94;5190522;28;20530;-77